Terminal Aerodrome Forecast
Issued by NWS Albuquerque, NM

Home | Current Version | Previous Version | Text Only | Print | Product List | Glossary On
Versions: 1 2 3 4 5 6 7 8 9 10 11 12 13 14 15 16
000
FTUS45 KABQ 241743
TAFABQ
TAF
KABQ 241743Z 2418/2518 VRB06KT P6SM SCT060 SCT250
     FM242200 17010KT P6SM VCTS SCT070CB BKN150
     FM250000 13011KT P6SM VCSH BKN070
     FM250600 VRB05KT P6SM SCT070 BKN120
     FM251600 24006KT P6SM SCT120=

USA.gov is the U.S. government's official web portal to all federal, state and local government web resources and services.